createdAt,value
2022-12-11T00:00:25.941Z,17.03
2022-12-11T00:02:52.809Z,14.93
2022-12-11T00:05:19.665Z,16.40
2022-12-11T00:07:46.357Z,13.63
2022-12-11T00:10:13.090Z,15.07
2022-12-11T00:12:39.751Z,15.97
2022-12-11T00:15:07.469Z,17.20
2022-12-11T00:17:34.485Z,15.03
2022-12-11T00:20:02.102Z,14.30
2022-12-11T00:22:31.057Z,17.47
2022-12-11T00:24:57.715Z,14.47
2022-12-11T00:27:24.416Z,14.07
2022-12-11T00:29:51.137Z,14.27
2022-12-11T00:32:17.812Z,14.93
2022-12-11T00:34:44.475Z,14.23
2022-12-11T00:37:11.176Z,17.73
2022-12-11T00:39:39.809Z,14.53
2022-12-11T00:42:07.871Z,15.67
2022-12-11T00:44:35.356Z,15.97
2022-12-11T00:47:02.408Z,15.70
2022-12-11T00:49:29.596Z,15.67
2022-12-11T00:51:56.478Z,13.83
2022-12-11T00:54:23.454Z,13.70
2022-12-11T00:56:50.714Z,14.80
2022-12-11T00:59:17.463Z,14.73
2022-12-11T01:01:44.187Z,13.73
2022-12-11T01:04:10.939Z,14.43
2022-12-11T01:06:37.556Z,15.00
2022-12-11T01:09:42.832Z,14.00
2022-12-11T01:12:09.627Z,14.17
2022-12-11T01:14:36.386Z,12.83
2022-12-11T01:17:03.305Z,17.47
2022-12-11T01:19:30.200Z,17.13
2022-12-11T01:21:56.907Z,13.70
2022-12-11T01:24:23.566Z,16.73
2022-12-11T01:26:50.509Z,15.50
2022-12-11T01:29:17.302Z,16.23
2022-12-11T01:31:44.149Z,16.57
2022-12-11T01:34:10.793Z,15.40
2022-12-11T01:36:37.620Z,15.57
2022-12-11T01:39:04.266Z,17.43
2022-12-11T01:41:31.013Z,14.60
2022-12-11T01:44:14.676Z,15.70
2022-12-11T01:46:42.861Z,18.17
2022-12-11T01:49:13.918Z,15.57
2022-12-11T01:51:51.815Z,14.97
2022-12-11T01:54:23.736Z,13.43
2022-12-11T01:56:55.291Z,14.60
2022-12-11T01:59:26.908Z,14.10
2022-12-11T02:02:16.215Z,14.70
2022-12-11T02:04:44.728Z,17.60
2022-12-11T02:07:12.024Z,15.93
2022-12-11T02:09:42.479Z,13.30
2022-12-11T02:12:42.728Z,13.20
2022-12-11T02:15:20.270Z,15.47
2022-12-11T02:18:06.497Z,14.93
2022-12-11T02:20:58.672Z,13.57
2022-12-11T02:23:48.001Z,15.00
2022-12-11T02:26:21.562Z,15.70
2022-12-11T02:28:58.919Z,15.93
2022-12-11T02:31:59.037Z,13.80
2022-12-11T02:34:43.258Z,15.07
2022-12-11T02:37:20.108Z,13.37
2022-12-11T02:39:49.553Z,12.40
2022-12-11T02:42:18.381Z,14.37
2022-12-11T02:44:48.762Z,13.40
2022-12-11T02:47:18.206Z,18.67
2022-12-11T02:49:49.315Z,13.47
2022-12-11T02:52:22.111Z,13.93
2022-12-11T02:54:51.995Z,13.87
2022-12-11T02:57:44.470Z,15.27
2022-12-11T03:00:12.523Z,12.93
2022-12-11T03:02:40.556Z,15.37
2022-12-11T03:05:08.635Z,15.23
2022-12-11T03:07:40.710Z,14.80
2022-12-11T03:10:11.889Z,14.73
2022-12-11T03:12:43.161Z,17.10
2022-12-11T03:15:16.613Z,14.57
2022-12-11T03:18:01.520Z,14.53
2022-12-11T03:20:43.856Z,15.47
2022-12-11T03:23:24.915Z,15.47
2022-12-11T03:26:22.319Z,14.10
2022-12-11T03:28:58.537Z,14.37
2022-12-11T03:31:40.618Z,17.77
2022-12-11T03:34:22.617Z,13.87
2022-12-11T03:36:51.733Z,13.93
2022-12-11T03:39:33.626Z,14.97
2022-12-11T03:42:03.585Z,15.07
2022-12-11T03:44:33.425Z,14.47
2022-12-11T03:47:03.845Z,15.73
2022-12-11T03:49:41.288Z,18.40
2022-12-11T03:52:12.396Z,15.90
2022-12-11T03:54:41.870Z,14.33
2022-12-11T03:57:12.262Z,16.33
2022-12-11T03:59:38.921Z,14.60
2022-12-11T04:02:11.038Z,16.23
2022-12-11T04:04:39.632Z,14.70
2022-12-11T04:07:07.011Z,13.57
2022-12-11T04:09:34.141Z,13.43
2022-12-11T04:12:00.887Z,14.93
2022-12-11T04:14:47.371Z,14.50
2022-12-11T04:17:34.183Z,14.23
2022-12-11T04:20:19.840Z,14.23
2022-12-11T04:23:05.064Z,15.20
2022-12-11T04:25:31.747Z,16.73
2022-12-11T04:27:58.414Z,14.93
2022-12-11T04:30:32.314Z,15.10
2022-12-11T04:33:00.780Z,15.10
2022-12-11T04:35:27.525Z,14.50
2022-12-11T04:37:54.305Z,13.23
2022-12-11T04:40:21.417Z,15.67
2022-12-11T04:42:48.310Z,15.10
2022-12-11T04:45:15.363Z,13.70
2022-12-11T04:47:42.451Z,14.00
2022-12-11T04:50:11.996Z,14.90
2022-12-11T04:52:38.746Z,13.63
2022-12-11T04:55:07.394Z,16.00
2022-12-11T04:57:34.936Z,11.87
2022-12-11T05:00:02.083Z,14.13
2022-12-11T05:02:28.895Z,13.43
2022-12-11T05:04:55.555Z,15.10
2022-12-11T05:07:22.244Z,12.67
2022-12-11T05:09:49.050Z,13.70
2022-12-11T05:12:15.720Z,12.20
2022-12-11T05:14:42.377Z,13.03
2022-12-11T05:17:09.159Z,14.70
2022-12-11T05:19:35.918Z,14.57
2022-12-11T05:22:02.587Z,17.67
2022-12-11T05:24:29.265Z,13.50
2022-12-11T05:26:56.128Z,14.63
2022-12-11T05:29:22.860Z,15.73
2022-12-11T05:31:49.628Z,17.60
2022-12-11T05:34:16.266Z,12.77
2022-12-11T05:36:43.068Z,14.37
2022-12-11T05:39:11.986Z,16.07
2022-12-11T05:41:38.719Z,14.63
2022-12-11T05:44:05.710Z,13.70
2022-12-11T05:46:32.587Z,13.87
2022-12-11T05:49:01.740Z,13.93
2022-12-11T05:51:29.718Z,14.37
2022-12-11T05:53:57.619Z,13.40
2022-12-11T05:56:28.538Z,16.10
2022-12-11T05:58:56.682Z,16.10
2022-12-11T06:01:31.350Z,16.40
2022-12-11T06:03:59.355Z,16.17
2022-12-11T06:06:27.219Z,14.43
2022-12-11T06:08:56.915Z,14.87
2022-12-11T06:11:25.965Z,14.77
2022-12-11T06:13:53.543Z,15.87
2022-12-11T06:16:21.687Z,19.27
2022-12-11T06:18:48.634Z,14.93
2022-12-11T06:21:20.972Z,18.13
2022-12-11T06:23:50.304Z,18.63
2022-12-11T06:26:18.287Z,20.60
2022-12-11T06:28:46.434Z,17.60
2022-12-11T06:31:14.127Z,16.90
2022-12-11T06:33:43.047Z,17.67
2022-12-11T06:36:18.653Z,19.40
2022-12-11T06:38:45.645Z,20.60
2022-12-11T06:41:12.711Z,23.53
2022-12-11T06:43:42.845Z,15.43
2022-12-11T06:46:15.896Z,19.47
2022-12-11T06:48:43.630Z,16.53
2022-12-11T06:51:13.719Z,18.90
2022-12-11T06:53:41.294Z,16.57
2022-12-11T06:56:11.896Z,15.10
2022-12-11T06:58:39.612Z,17.43
2022-12-11T07:01:16.449Z,16.00
2022-12-11T07:03:43.515Z,20.73
2022-12-11T07:06:10.506Z,17.37
2022-12-11T07:08:37.668Z,17.00
2022-12-11T07:11:11.347Z,16.50
2022-12-11T07:13:38.681Z,18.60
2022-12-11T07:16:10.702Z,21.70
2022-12-11T07:18:40.128Z,19.83
2022-12-11T07:21:08.123Z,16.10
2022-12-11T07:23:35.509Z,15.63
2022-12-11T07:26:09.247Z,20.37
2022-12-11T07:28:36.477Z,17.07
2022-12-11T07:31:15.817Z,18.37
2022-12-11T07:33:43.553Z,20.17
2022-12-11T07:36:12.467Z,18.97
2022-12-11T07:38:39.640Z,18.37
2022-12-11T07:41:10.970Z,15.77
2022-12-11T07:43:37.933Z,17.57
2022-12-11T07:46:12.199Z,21.13
2022-12-11T07:48:41.501Z,19.27
2022-12-11T07:51:39.011Z,19.77
2022-12-11T07:54:11.948Z,17.60
2022-12-11T07:56:43.698Z,18.57
2022-12-11T07:59:11.509Z,20.50
2022-12-11T08:01:39.837Z,17.63
2022-12-11T08:04:10.610Z,19.83
2022-12-11T08:06:40.623Z,15.73
2022-12-11T08:09:14.681Z,17.17
2022-12-11T08:11:45.922Z,18.57
2022-12-11T08:14:14.967Z,22.27
2022-12-11T08:16:43.971Z,20.17
2022-12-11T08:19:14.407Z,18.40
2022-12-11T08:21:41.463Z,17.40
2022-12-11T08:24:08.913Z,17.87
2022-12-11T08:26:36.688Z,19.43
2022-12-11T08:29:03.541Z,18.47
2022-12-11T08:31:30.380Z,18.00
2022-12-11T08:33:58.015Z,19.80
2022-12-11T08:36:25.372Z,17.23
2022-12-11T08:38:53.928Z,20.50
2022-12-11T08:41:26.961Z,18.80
2022-12-11T08:43:55.233Z,17.33
2022-12-11T08:46:25.620Z,18.30
2022-12-11T08:48:54.014Z,21.10
2022-12-11T08:51:24.595Z,20.83
2022-12-11T08:53:54.311Z,23.00
2022-12-11T08:56:23.555Z,19.33
2022-12-11T08:58:52.891Z,17.73
2022-12-11T09:01:23.619Z,20.40
2022-12-11T09:03:52.317Z,20.80
2022-12-11T09:06:22.346Z,18.93
2022-12-11T09:08:52.899Z,21.90
2022-12-11T09:11:33.942Z,18.80
2022-12-11T09:14:07.342Z,20.93
2022-12-11T09:16:37.955Z,17.43
2022-12-11T09:19:08.482Z,22.60
2022-12-11T09:21:35.219Z,20.33
2022-12-11T09:24:02.166Z,20.70
2022-12-11T09:26:30.186Z,19.83
2022-12-11T09:28:57.543Z,17.47
2022-12-11T09:31:28.837Z,20.50
2022-12-11T09:34:01.180Z,20.03
2022-12-11T09:36:28.543Z,21.07
2022-12-11T09:38:55.393Z,19.77
2022-12-11T09:41:22.077Z,20.67
2022-12-11T09:44:13.341Z,20.77
2022-12-11T09:46:41.680Z,17.47
2022-12-11T09:49:26.440Z,20.63
2022-12-11T09:52:14.475Z,21.23
2022-12-11T09:54:57.824Z,18.70
2022-12-11T09:57:30.363Z,20.90
2022-12-11T10:00:16.218Z,20.50
2022-12-11T10:03:14.282Z,17.40
2022-12-11T10:06:15.045Z,17.40
2022-12-11T10:09:41.306Z,22.67
2022-12-11T10:12:40.036Z,18.70
2022-12-11T10:15:31.546Z,20.73
2022-12-11T10:18:04.927Z,18.17
2022-12-11T10:20:39.190Z,19.80
2022-12-11T10:23:22.399Z,19.13
2022-12-11T10:26:21.661Z,19.20
2022-12-11T10:28:49.127Z,17.70
2022-12-11T10:31:43.786Z,17.50
2022-12-11T10:34:19.218Z,19.30
2022-12-11T10:36:46.078Z,20.03
2022-12-11T10:39:16.706Z,17.53
2022-12-11T10:41:47.140Z,19.87
2022-12-11T10:44:22.524Z,18.23
2022-12-11T10:47:14.568Z,18.60
2022-12-11T10:49:59.204Z,19.50
2022-12-11T10:52:28.620Z,18.37
2022-12-11T10:55:17.525Z,16.87
2022-12-11T10:57:45.309Z,21.33
2022-12-11T11:00:32.974Z,15.27
2022-12-11T11:03:01.598Z,20.30
2022-12-11T11:05:35.682Z,18.93
2022-12-11T11:08:12.682Z,19.43
2022-12-11T11:10:57.896Z,22.20
2022-12-11T11:13:28.176Z,17.50
2022-12-11T11:16:07.807Z,22.80
2022-12-11T11:18:34.866Z,22.53
2022-12-11T11:21:02.579Z,20.03
2022-12-11T11:23:29.732Z,26.33
2022-12-11T11:26:00.342Z,20.40
2022-12-11T11:28:37.808Z,18.30
2022-12-11T11:31:16.526Z,18.50
2022-12-11T11:34:03.097Z,23.60
2022-12-11T11:36:34.321Z,17.83
2022-12-11T11:39:25.908Z,19.50
2022-12-11T11:41:59.145Z,18.40
2022-12-11T11:44:36.915Z,19.50
2022-12-11T11:47:16.973Z,17.43
2022-12-11T11:50:16.331Z,17.40
2022-12-11T11:53:17.384Z,20.53
2022-12-11T11:56:01.889Z,22.93
2022-12-11T11:58:41.108Z,21.43
2022-12-11T12:01:19.845Z,19.73
2022-12-11T12:03:48.554Z,18.83
2022-12-11T12:06:57.451Z,26.17
2022-12-11T12:10:18.750Z,16.20
2022-12-11T12:13:47.671Z,16.87
2022-12-11T12:16:22.986Z,19.97
2022-12-11T12:19:08.327Z,20.83
2022-12-11T12:21:38.977Z,21.13
2022-12-11T12:24:48.013Z,23.10
2022-12-11T12:27:58.180Z,20.70
2022-12-11T12:30:22.881Z,18.27
2022-12-11T12:33:12.188Z,19.20
2022-12-11T12:36:18.163Z,20.00
2022-12-11T12:39:03.303Z,22.53
2022-12-11T12:42:16.495Z,17.77
2022-12-11T12:44:52.106Z,20.03
2022-12-11T12:47:20.030Z,19.47
2022-12-11T12:49:53.090Z,18.57
2022-12-11T12:52:37.122Z,23.07
2022-12-11T12:55:22.782Z,18.97
2022-12-11T12:58:00.482Z,20.37
2022-12-11T13:00:42.089Z,19.30
2022-12-11T13:03:21.710Z,21.77
2022-12-11T13:05:59.424Z,22.47
2022-12-11T13:08:42.637Z,20.90
2022-12-11T13:11:13.705Z,21.00
2022-12-11T13:13:42.974Z,19.87
2022-12-11T13:16:15.544Z,19.43
2022-12-11T13:18:45.434Z,23.03
2022-12-11T13:21:33.698Z,22.30
2022-12-11T13:24:19.228Z,22.33
2022-12-11T13:26:47.960Z,22.47
2022-12-11T13:29:41.479Z,26.60
2022-12-11T13:32:08.112Z,24.37
2022-12-11T13:34:42.908Z,24.43
2022-12-11T13:37:38.467Z,22.47
2022-12-11T13:40:42.921Z,19.17
2022-12-11T13:43:27.200Z,20.83
2022-12-11T13:46:00.758Z,24.90
2022-12-11T13:48:43.611Z,20.37
2022-12-11T13:51:19.809Z,23.20
2022-12-11T13:53:47.841Z,25.73
2022-12-11T13:56:20.825Z,26.57
2022-12-11T13:58:49.023Z,23.87
2022-12-11T14:01:33.385Z,23.87
2022-12-11T14:04:09.645Z,21.57
2022-12-11T14:06:38.686Z,24.77
2022-12-11T14:09:07.111Z,22.20
2022-12-11T14:11:43.556Z,23.90
2022-12-11T14:14:28.068Z,20.87
2022-12-11T14:16:55.037Z,22.50
2022-12-11T14:19:23.024Z,23.57
2022-12-11T14:21:59.475Z,25.00
2022-12-11T14:24:26.786Z,25.73
2022-12-11T14:26:55.258Z,26.00
2022-12-11T14:29:31.902Z,23.97
2022-12-11T14:32:07.111Z,25.37
2022-12-11T14:34:45.307Z,26.43
2022-12-11T14:37:15.899Z,24.60
2022-12-11T14:40:19.671Z,24.70
2022-12-11T14:43:01.169Z,23.33
2022-12-11T14:45:48.581Z,21.83
2022-12-11T14:48:53.869Z,25.30
2022-12-11T14:51:26.199Z,23.60
2022-12-11T14:53:54.822Z,23.27
2022-12-11T14:56:27.655Z,23.17
2022-12-11T14:59:06.395Z,21.47
2022-12-11T15:01:36.863Z,30.97
2022-12-11T15:04:19.592Z,23.60
2022-12-11T15:06:49.195Z,22.10
2022-12-11T15:09:41.419Z,26.57
2022-12-11T15:12:16.066Z,27.53
2022-12-11T15:15:01.374Z,29.23
2022-12-11T15:17:30.770Z,25.30
2022-12-11T15:20:07.543Z,27.23
2022-12-11T15:22:36.101Z,27.47
2022-12-11T15:25:03.693Z,24.03
2022-12-11T15:27:39.523Z,26.37
2022-12-11T15:30:27.699Z,22.20
2022-12-11T15:33:09.397Z,19.50
2022-12-11T15:35:39.225Z,27.40
2022-12-11T15:38:06.397Z,24.90
2022-12-11T15:40:33.312Z,26.80
2022-12-11T15:43:03.152Z,25.03
2022-12-11T15:45:29.928Z,19.63
2022-12-11T15:47:57.368Z,21.97
2022-12-11T15:50:26.371Z,29.60
2022-12-11T15:52:55.059Z,23.97
2022-12-11T15:55:25.376Z,24.60
2022-12-11T15:58:01.815Z,25.70
2022-12-11T16:00:29.141Z,23.50
2022-12-11T16:02:57.753Z,23.23
2022-12-11T16:05:25.888Z,22.17
2022-12-11T16:07:54.790Z,25.17
2022-12-11T16:10:22.675Z,24.43
2022-12-11T16:12:49.880Z,23.93
2022-12-11T16:15:23.272Z,25.67
2022-12-11T16:17:59.432Z,23.27
2022-12-11T16:20:26.301Z,24.60
2022-12-11T16:22:53.016Z,25.97
2022-12-11T16:25:19.791Z,27.03
2022-12-11T16:27:47.044Z,29.37
2022-12-11T16:30:14.296Z,26.50
2022-12-11T16:32:40.969Z,24.27
2022-12-11T16:35:07.858Z,28.00
2022-12-11T16:37:34.665Z,24.63
2022-12-11T16:40:01.395Z,26.00
2022-12-11T16:42:28.150Z,28.00
2022-12-11T16:44:54.803Z,25.23
2022-12-11T16:47:21.489Z,26.27
2022-12-11T16:49:48.172Z,25.77
2022-12-11T16:52:20.459Z,23.20
2022-12-11T16:54:48.752Z,21.97
2022-12-11T16:57:15.749Z,22.27
2022-12-11T16:59:43.408Z,25.57
2022-12-11T17:02:11.521Z,24.73
2022-12-11T17:04:38.525Z,22.63
2022-12-11T17:07:06.087Z,23.83
2022-12-11T17:09:33.341Z,21.40
2022-12-11T17:12:00.221Z,20.27
2022-12-11T17:14:27.222Z,23.23
2022-12-11T17:16:55.173Z,22.83
2022-12-11T17:19:22.325Z,29.60
2022-12-11T17:21:51.767Z,25.67
2022-12-11T17:24:18.874Z,21.57
2022-12-11T17:26:46.283Z,25.47
2022-12-11T17:29:13.116Z,23.07
2022-12-11T17:31:40.301Z,23.33
2022-12-11T17:34:07.278Z,25.80
2022-12-11T17:36:34.176Z,26.43
2022-12-11T17:39:00.963Z,36.77
2022-12-11T17:41:27.744Z,29.57
2022-12-11T17:43:55.563Z,31.20
2022-12-11T17:46:23.155Z,28.67
2022-12-11T17:48:50.140Z,32.70
2022-12-11T17:51:23.779Z,28.67
2022-12-11T17:53:55.329Z,28.07
2022-12-11T17:56:22.703Z,26.30
2022-12-11T17:58:49.866Z,45.77
2022-12-11T18:01:17.288Z,33.87
2022-12-11T18:03:44.347Z,28.30
2022-12-11T18:06:15.240Z,37.37
2022-12-11T18:08:42.773Z,30.00
2022-12-11T18:11:16.887Z,33.67
2022-12-11T18:13:45.505Z,30.50
2022-12-11T18:16:20.503Z,39.77
2022-12-11T18:18:48.505Z,33.77
2022-12-11T18:21:21.632Z,40.93
2022-12-11T18:23:50.862Z,35.27
2022-12-11T18:26:19.642Z,36.70
2022-12-11T18:28:47.885Z,35.43
2022-12-11T18:31:14.672Z,36.30
2022-12-11T18:33:44.201Z,41.63
2022-12-11T18:36:14.132Z,41.37
2022-12-11T18:38:42.172Z,51.83
2022-12-11T18:41:12.137Z,43.13
2022-12-11T18:43:41.227Z,39.37
2022-12-11T18:46:10.508Z,44.13
2022-12-11T18:48:37.788Z,43.40
2022-12-11T18:51:11.986Z,51.37
2022-12-11T18:53:39.453Z,50.53
2022-12-11T18:56:10.393Z,40.97
2022-12-11T18:58:37.873Z,48.10
2022-12-11T19:01:16.144Z,51.63
2022-12-11T19:03:44.218Z,50.83
2022-12-11T19:06:15.077Z,51.13
2022-12-11T19:08:42.678Z,55.37
2022-12-11T19:11:13.347Z,36.60
2022-12-11T19:13:39.995Z,50.03
2022-12-11T19:16:07.151Z,40.73
2022-12-11T19:18:35.205Z,41.73
2022-12-11T19:21:09.070Z,40.37
2022-12-11T19:23:37.971Z,47.20
2022-12-11T19:26:05.330Z,40.50
2022-12-11T19:28:34.337Z,52.40
2022-12-11T19:31:01.411Z,41.20
2022-12-11T19:33:28.460Z,47.40
2022-12-11T19:36:14.154Z,43.50
2022-12-11T19:38:43.026Z,44.57
2022-12-11T19:41:20.031Z,39.07
2022-12-11T19:43:48.482Z,43.87
2022-12-11T19:46:16.297Z,41.40
2022-12-11T19:48:43.468Z,41.30
2022-12-11T19:51:17.687Z,39.37
2022-12-11T19:53:47.844Z,37.00
2022-12-11T19:56:16.988Z,41.57
2022-12-11T19:58:44.027Z,39.17
2022-12-11T20:01:30.116Z,37.63
2022-12-11T20:04:01.009Z,35.23
2022-12-11T20:06:31.628Z,40.43
2022-12-11T20:08:59.128Z,41.03
2022-12-11T20:11:26.479Z,38.47
2022-12-11T20:13:55.495Z,36.97
2022-12-11T20:16:45.832Z,41.27
2022-12-11T20:19:10.114Z,40.20
2022-12-11T20:21:37.156Z,37.37
2022-12-11T20:24:04.154Z,39.07
2022-12-11T20:26:32.511Z,37.40
2022-12-11T20:28:59.605Z,35.07
2022-12-11T20:31:28.137Z,44.07
2022-12-11T20:33:57.102Z,44.13
2022-12-11T20:36:25.013Z,43.60
2022-12-11T20:38:52.880Z,42.30
2022-12-11T20:41:22.788Z,36.27
2022-12-11T20:43:50.681Z,40.90
2022-12-11T20:46:18.454Z,41.20
2022-12-11T20:48:45.776Z,48.57
2022-12-11T20:51:23.846Z,51.10
2022-12-11T20:53:58.483Z,41.57
2022-12-11T20:56:29.576Z,41.23
2022-12-11T20:58:58.143Z,40.07
2022-12-11T21:01:28.667Z,39.00
2022-12-11T21:03:55.497Z,43.07
2022-12-11T21:06:26.314Z,40.53
2022-12-11T21:08:54.124Z,42.87
2022-12-11T21:11:21.518Z,42.97
2022-12-11T21:13:51.666Z,41.47
2022-12-11T21:16:19.542Z,42.80
2022-12-11T21:18:46.939Z,40.20
2022-12-11T21:21:15.006Z,42.63
2022-12-11T21:23:41.904Z,44.17
2022-12-11T21:26:08.717Z,43.90
2022-12-11T21:28:35.911Z,43.33
2022-12-11T21:31:07.182Z,41.87
2022-12-11T21:33:34.213Z,41.77
2022-12-11T21:36:01.496Z,41.20
2022-12-11T21:38:28.883Z,41.83
2022-12-11T21:40:56.543Z,40.43
2022-12-11T21:43:24.816Z,44.60
2022-12-11T21:46:00.884Z,43.07
2022-12-11T21:48:28.481Z,37.63
2022-12-11T21:50:55.225Z,42.33
2022-12-11T21:53:21.933Z,36.60
2022-12-11T21:55:48.626Z,40.20
2022-12-11T21:58:15.627Z,42.23
2022-12-11T22:00:42.394Z,39.73
2022-12-11T22:03:09.186Z,44.80
2022-12-11T22:05:35.837Z,51.00
2022-12-11T22:08:02.617Z,42.90
2022-12-11T22:10:29.510Z,39.43
2022-12-11T22:12:56.300Z,49.90
2022-12-11T22:15:23.016Z,48.77
2022-12-11T22:17:50.094Z,37.60
2022-12-11T22:20:18.485Z,44.53
2022-12-11T22:22:46.653Z,43.93
2022-12-11T22:25:13.875Z,46.83
2022-12-11T22:27:40.844Z,36.57
2022-12-11T22:30:08.417Z,35.97
2022-12-11T22:32:35.213Z,42.93
2022-12-11T22:35:01.916Z,41.63
2022-12-11T22:37:29.465Z,38.30
2022-12-11T22:39:56.292Z,44.37
2022-12-11T22:42:23.054Z,40.20
2022-12-11T22:44:49.769Z,48.33
2022-12-11T22:47:16.547Z,45.90
2022-12-11T22:49:43.400Z,48.90
2022-12-11T22:52:10.547Z,46.33
2022-12-11T22:54:42.572Z,49.67
2022-12-11T22:57:09.583Z,42.47
2022-12-11T22:59:36.696Z,36.83
2022-12-11T23:02:03.703Z,42.00
2022-12-11T23:04:30.683Z,43.03
2022-12-11T23:06:57.879Z,46.47
2022-12-11T23:09:24.817Z,45.03
2022-12-11T23:11:52.209Z,40.80
2022-12-11T23:14:19.532Z,41.40
2022-12-11T23:16:46.378Z,44.73
2022-12-11T23:19:13.775Z,55.03
2022-12-11T23:21:40.516Z,48.97
2022-12-11T23:24:07.810Z,51.07
2022-12-11T23:26:34.541Z,61.93
2022-12-11T23:29:01.937Z,49.67
2022-12-11T23:31:30.114Z,53.07
2022-12-11T23:33:57.475Z,64.50
2022-12-11T23:36:25.944Z,61.60
2022-12-11T23:38:54.981Z,89.37
2022-12-11T23:41:22.714Z,59.03
2022-12-11T23:43:49.443Z,71.23
2022-12-11T23:46:21.849Z,80.10
2022-12-11T23:48:48.946Z,66.83
2022-12-11T23:51:19.074Z,56.30
2022-12-11T23:53:46.930Z,50.57
2022-12-11T23:56:19.289Z,54.27
2022-12-11T23:58:46.332Z,58.07
